Central City, Arkansas
Current Conditions -  °F | °C
As of 11:53 AM on Friday 24 Oct 2014 (Local Time) from KHOT Reporting Station
Clear Clear  
Wind Chill: 68°   Ceiling: Unl
Heat Index: 68°   Visibility: 10mi
Dew Point: 53°   Wind: 5mph
Humidity: 59%   Direction: 190°S
Pressure: 30.17"   Gusts: NA
Location:  34.5331°N, 93.0035°W
Report Text: KHOT 241653Z AUTO 19004KT 10SM CLR 20/12 A3017 RMK AO2 SLP214 T02000117
Loading
Personal Weather Stations






























Interactive Weather Map
Tropical Storm Tracking
New forecast layout! Learn more

10-Day Weather Forecast

Advertisements
Track Severe Weather on mobile